createdAt,value
2023-04-12T00:00:45.499Z,2.37
2023-04-12T00:03:12.383Z,1.90
2023-04-12T00:05:38.936Z,1.47
2023-04-12T00:08:06.212Z,1.70
2023-04-12T00:10:32.757Z,1.77
2023-04-12T00:12:59.333Z,1.67
2023-04-12T00:15:25.825Z,1.47
2023-04-12T00:17:53.199Z,1.37
2023-04-12T00:20:19.667Z,1.50
2023-04-12T00:22:46.368Z,1.87
2023-04-12T00:25:12.866Z,1.90
2023-04-12T00:27:39.590Z,1.80
2023-04-12T00:30:08.299Z,1.93
2023-04-12T00:32:35.428Z,2.00
2023-04-12T00:35:02.181Z,2.33
2023-04-12T00:37:29.773Z,2.27
2023-04-12T00:39:56.235Z,1.90
2023-04-12T00:42:23.177Z,1.93
2023-04-12T00:44:49.859Z,2.20
2023-04-12T00:47:16.403Z,1.70
2023-04-12T00:49:42.958Z,2.13
2023-04-12T00:52:15.129Z,1.80
2023-04-12T00:54:42.227Z,1.77
2023-04-12T00:57:10.820Z,2.00
2023-04-12T00:59:37.230Z,1.73
2023-04-12T01:02:03.871Z,2.00
2023-04-12T01:04:53.346Z,2.00
2023-04-12T01:07:45.297Z,2.43
2023-04-12T01:10:14.702Z,2.33
2023-04-12T01:12:42.120Z,1.70
2023-04-12T01:15:13.852Z,2.37
2023-04-12T01:17:59.620Z,1.57
2023-04-12T01:20:28.991Z,1.90
2023-04-12T01:22:59.193Z,2.27
2023-04-12T01:25:44.796Z,2.67
2023-04-12T01:28:14.739Z,2.30
2023-04-12T01:30:42.155Z,3.40
2023-04-12T01:33:10.799Z,3.63
2023-04-12T01:35:37.656Z,3.83
2023-04-12T01:38:04.762Z,4.47
2023-04-12T01:40:31.432Z,4.10
2023-04-12T01:43:08.589Z,3.83
2023-04-12T01:45:36.502Z,4.33
2023-04-12T01:48:07.792Z,4.10
2023-04-12T01:50:47.642Z,3.70
2023-04-12T01:53:18.855Z,2.80
2023-04-12T01:55:46.795Z,3.43
2023-04-12T01:58:15.280Z,3.60
2023-04-12T02:00:43.721Z,2.70
2023-04-12T02:03:12.242Z,3.07
2023-04-12T02:05:39.550Z,2.93
2023-04-12T02:08:06.178Z,2.70
2023-04-12T02:10:33.075Z,2.17
2023-04-12T02:13:00.530Z,2.47
2023-04-12T02:15:30.712Z,3.23
2023-04-12T02:17:59.615Z,2.70
2023-04-12T02:20:27.553Z,2.03
2023-04-12T02:22:54.322Z,2.30
2023-04-12T02:25:21.241Z,2.40
2023-04-12T02:27:48.687Z,2.63
2023-04-12T02:30:15.648Z,2.70
2023-04-12T02:32:45.419Z,2.20
2023-04-12T02:35:19.587Z,2.13
2023-04-12T02:37:51.215Z,2.10
2023-04-12T02:40:17.692Z,2.17
2023-04-12T02:42:44.509Z,2.20
2023-04-12T02:45:12.641Z,2.20
2023-04-12T02:47:40.910Z,2.10
2023-04-12T02:50:09.375Z,2.10
2023-04-12T02:52:46.863Z,2.67
2023-04-12T02:55:13.336Z,1.90
2023-04-12T02:57:40.003Z,1.83
2023-04-12T03:00:13.714Z,2.10
2023-04-12T03:02:46.530Z,2.27
2023-04-12T03:05:21.752Z,1.97
2023-04-12T03:07:49.047Z,2.07
2023-04-12T03:10:19.298Z,1.90
2023-04-12T03:12:53.346Z,2.00
2023-04-12T03:15:23.573Z,2.30
2023-04-12T03:17:52.797Z,1.90
2023-04-12T03:20:24.541Z,1.80
2023-04-12T03:22:59.462Z,1.90
2023-04-12T03:25:27.527Z,1.70
2023-04-12T03:27:58.145Z,1.80
2023-04-12T03:30:34.431Z,3.27
2023-04-12T03:33:01.685Z,2.03
2023-04-12T03:35:28.738Z,1.73
2023-04-12T03:37:55.621Z,2.40
2023-04-12T03:40:22.703Z,2.13
2023-04-12T03:42:56.921Z,1.70
2023-04-12T03:45:24.516Z,1.90
2023-04-12T03:47:54.273Z,2.00
2023-04-12T03:50:22.518Z,1.60
2023-04-12T03:52:54.961Z,1.67
2023-04-12T03:55:28.036Z,1.87
2023-04-12T03:57:56.518Z,2.57
2023-04-12T04:00:25.945Z,2.13
2023-04-12T04:03:03.418Z,1.50
2023-04-12T04:05:33.398Z,1.90
2023-04-12T04:08:02.144Z,2.33
2023-04-12T04:10:33.154Z,1.80
2023-04-12T04:12:59.609Z,2.00
2023-04-12T04:15:26.875Z,1.67
2023-04-12T04:17:55.216Z,1.67
2023-04-12T04:20:21.916Z,1.80
2023-04-12T04:22:53.784Z,2.50
2023-04-12T04:25:29.975Z,1.93
2023-04-12T04:27:59.945Z,1.80
2023-04-12T04:30:29.339Z,1.47
2023-04-12T04:32:56.427Z,1.93
2023-04-12T04:35:25.384Z,1.70
2023-04-12T04:38:06.245Z,1.47
2023-04-12T04:40:32.775Z,1.37
2023-04-12T04:43:20.119Z,1.33
2023-04-12T04:45:49.281Z,1.97
2023-04-12T04:48:18.775Z,2.03
2023-04-12T04:50:45.241Z,1.40
2023-04-12T04:53:11.819Z,2.50
2023-04-12T04:55:38.628Z,1.53
2023-04-12T04:58:06.151Z,2.03
2023-04-12T05:00:35.726Z,2.07
2023-04-12T05:03:05.742Z,1.93
2023-04-12T05:05:32.572Z,1.70
2023-04-12T05:08:06.126Z,2.33
2023-04-12T05:10:34.562Z,2.07
2023-04-12T05:13:02.490Z,2.17
2023-04-12T05:15:30.312Z,1.87
2023-04-12T05:17:57.139Z,3.63
2023-04-12T05:20:23.822Z,2.00
2023-04-12T05:22:50.700Z,2.00
2023-04-12T05:25:17.344Z,1.70
2023-04-12T05:27:52.131Z,2.27
2023-04-12T05:30:19.821Z,2.27
2023-04-12T05:32:46.325Z,1.57
2023-04-12T05:35:14.679Z,1.57
2023-04-12T05:37:43.090Z,1.73
2023-04-12T05:40:09.887Z,1.43
2023-04-12T05:42:37.476Z,1.90
2023-04-12T05:45:04.489Z,2.40
2023-04-12T05:47:33.124Z,1.47
2023-04-12T05:49:59.633Z,1.77
2023-04-12T05:52:26.726Z,1.50
2023-04-12T05:54:53.785Z,1.80
2023-04-12T05:57:22.546Z,1.90
2023-04-12T05:59:49.142Z,2.10
2023-04-12T06:02:18.552Z,1.53
2023-04-12T06:04:50.895Z,2.03
2023-04-12T06:07:19.409Z,2.27
2023-04-12T06:09:46.169Z,2.77
2023-04-12T06:12:12.731Z,2.43
2023-04-12T06:14:39.829Z,2.07
2023-04-12T06:17:07.695Z,2.40
2023-04-12T06:19:34.326Z,3.30
2023-04-12T06:22:01.097Z,1.73
2023-04-12T06:24:27.869Z,2.20
2023-04-12T06:26:54.317Z,1.53
2023-04-12T06:29:21.641Z,1.80
2023-04-12T06:31:48.504Z,1.97
2023-04-12T06:34:15.941Z,1.60
2023-04-12T06:36:46.227Z,2.23
2023-04-12T06:39:12.703Z,1.63
2023-04-12T06:41:39.161Z,1.53
2023-04-12T06:44:06.182Z,1.60
2023-04-12T06:46:32.748Z,1.80
2023-04-12T06:48:59.952Z,1.80
2023-04-12T06:51:27.998Z,2.00
2023-04-12T06:53:54.670Z,2.00
2023-04-12T06:56:21.357Z,2.00
2023-04-12T06:58:47.860Z,1.70
2023-04-12T07:01:14.527Z,1.53
2023-04-12T07:03:41.200Z,1.23
2023-04-12T07:06:21.429Z,1.50
2023-04-12T07:08:51.251Z,1.57
2023-04-12T07:11:21.496Z,1.70
2023-04-12T07:13:49.267Z,2.43
2023-04-12T07:16:15.888Z,2.13
2023-04-12T07:18:44.314Z,2.10
2023-04-12T07:21:14.296Z,1.50
2023-04-12T07:23:41.093Z,1.63
2023-04-12T07:26:07.607Z,1.50
2023-04-12T07:28:36.114Z,1.53
2023-04-12T07:31:06.483Z,1.37
2023-04-12T07:33:35.036Z,1.50
2023-04-12T07:36:02.016Z,2.00
2023-04-12T07:38:28.464Z,1.67
2023-04-12T07:40:55.811Z,2.10
2023-04-12T07:43:22.573Z,1.20
2023-04-12T07:45:49.325Z,2.57
2023-04-12T07:48:16.031Z,2.00
2023-04-12T07:50:42.543Z,1.63
2023-04-12T07:53:19.715Z,1.63
2023-04-12T07:55:47.181Z,1.73
2023-04-12T07:58:13.713Z,1.63
2023-04-12T08:00:40.153Z,1.80
2023-04-12T08:03:07.094Z,1.80
2023-04-12T08:05:34.058Z,2.13
2023-04-12T08:08:00.578Z,1.97
2023-04-12T08:10:27.244Z,1.83
2023-04-12T08:12:54.037Z,1.60
2023-04-12T08:15:20.774Z,2.50
2023-04-12T08:17:48.068Z,1.70
2023-04-12T08:20:15.542Z,1.90
2023-04-12T08:22:42.577Z,1.63
2023-04-12T08:25:09.199Z,1.43
2023-04-12T08:27:35.770Z,1.33
2023-04-12T08:30:03.181Z,1.60
2023-04-12T08:32:29.731Z,1.50
2023-04-12T08:34:56.395Z,1.43
2023-04-12T08:37:22.875Z,1.70
2023-04-12T08:39:49.352Z,1.40
2023-04-12T08:42:16.784Z,1.60
2023-04-12T08:44:43.638Z,1.60
2023-04-12T08:47:10.646Z,1.47
2023-04-12T08:49:37.487Z,1.20
2023-04-12T08:52:07.718Z,1.83
2023-04-12T08:54:35.152Z,1.97
2023-04-12T08:57:02.658Z,1.23
2023-04-12T08:59:30.247Z,2.20
2023-04-12T09:01:57.133Z,1.63
2023-04-12T09:04:24.372Z,1.57
2023-04-12T09:06:50.846Z,1.90
2023-04-12T09:09:17.391Z,1.60
2023-04-12T09:11:43.853Z,2.07
2023-04-12T09:14:23.569Z,1.50
2023-04-12T09:16:50.563Z,1.53
2023-04-12T09:19:30.510Z,1.93
2023-04-12T09:21:57.158Z,1.90
2023-04-12T09:24:26.412Z,1.43
2023-04-12T09:27:03.136Z,1.90
2023-04-12T09:29:30.729Z,1.47
2023-04-12T09:32:00.243Z,1.60
2023-04-12T09:34:27.994Z,1.50
2023-04-12T09:36:54.998Z,1.97
2023-04-12T09:39:30.499Z,2.00
2023-04-12T09:42:32.454Z,1.33
2023-04-12T09:45:01.795Z,1.80
2023-04-12T09:47:39.202Z,1.63
2023-04-12T09:50:07.839Z,1.30
2023-04-12T09:52:38.745Z,1.43
2023-04-12T09:55:09.936Z,1.70
2023-04-12T09:57:43.595Z,1.80
2023-04-12T10:00:20.034Z,1.57
2023-04-12T10:02:49.012Z,1.43
2023-04-12T10:05:18.193Z,1.90
2023-04-12T10:07:45.276Z,1.80
2023-04-12T10:10:12.933Z,1.90
2023-04-12T10:12:40.885Z,1.60
2023-04-12T10:15:13.338Z,1.83
2023-04-12T10:17:47.157Z,2.00
2023-04-12T10:20:14.642Z,1.60
2023-04-12T10:22:45.537Z,1.53
2023-04-12T10:25:16.824Z,2.37
2023-04-12T10:27:44.212Z,2.20
2023-04-12T10:30:21.145Z,1.90
2023-04-12T10:32:48.721Z,2.13
2023-04-12T10:35:15.384Z,1.80
2023-04-12T10:38:01.962Z,1.73
2023-04-12T10:40:32.256Z,1.50
2023-04-12T10:43:24.182Z,1.93
2023-04-12T10:45:50.929Z,2.30
2023-04-12T10:48:36.475Z,1.50
2023-04-12T10:51:17.814Z,2.07
2023-04-12T10:53:46.614Z,1.90
2023-04-12T10:56:34.536Z,2.07
2023-04-12T10:59:04.953Z,1.67
2023-04-12T11:01:39.308Z,1.77
2023-04-12T11:04:15.420Z,2.03
2023-04-12T11:06:49.523Z,2.43
2023-04-12T11:09:34.530Z,2.50
2023-04-12T11:12:04.038Z,2.33
2023-04-12T11:14:37.642Z,2.53
2023-04-12T11:17:07.297Z,1.90
2023-04-12T11:19:34.674Z,1.87
2023-04-12T11:22:02.332Z,1.53
2023-04-12T11:24:29.513Z,1.67
2023-04-12T11:26:56.413Z,2.10
2023-04-12T11:29:23.666Z,1.87
2023-04-12T11:31:50.244Z,2.00
2023-04-12T11:34:17.261Z,2.40
2023-04-12T11:36:47.836Z,2.50
2023-04-12T11:39:15.558Z,2.07
2023-04-12T11:41:45.791Z,2.30
2023-04-12T11:44:19.350Z,2.13
2023-04-12T11:46:46.455Z,2.60
2023-04-12T11:49:17.448Z,2.60
2023-04-12T11:51:45.803Z,2.17
2023-04-12T11:54:13.878Z,2.53
2023-04-12T11:56:41.664Z,1.87
2023-04-12T11:59:08.685Z,2.23
2023-04-12T12:01:35.603Z,2.80
2023-04-12T12:04:02.628Z,2.10
2023-04-12T12:06:31.532Z,2.37
2023-04-12T12:08:58.612Z,2.40
2023-04-12T12:11:26.676Z,2.30
2023-04-12T12:13:55.135Z,2.07
2023-04-12T12:16:25.907Z,2.67
2023-04-12T12:18:53.074Z,2.30
2023-04-12T12:21:20.620Z,2.77
2023-04-12T12:23:47.562Z,2.30
2023-04-12T12:26:21.007Z,2.33
2023-04-12T12:28:51.826Z,2.60
2023-04-12T12:31:19.988Z,2.40
2023-04-12T12:33:47.539Z,2.37
2023-04-12T12:36:17.986Z,2.37
2023-04-12T12:38:44.599Z,2.03
2023-04-12T12:41:18.158Z,2.73
2023-04-12T12:43:45.944Z,2.20
2023-04-12T12:46:13.041Z,1.90
2023-04-12T12:48:40.629Z,2.23
2023-04-12T12:51:07.818Z,2.43
2023-04-12T12:53:34.715Z,1.90
2023-04-12T12:56:01.767Z,1.90
2023-04-12T12:58:28.427Z,2.20
2023-04-12T13:00:55.553Z,1.50
2023-04-12T13:03:22.944Z,2.10
2023-04-12T13:05:50.518Z,2.03
2023-04-12T13:08:17.192Z,2.07
2023-04-12T13:10:44.177Z,1.90
2023-04-12T13:13:10.633Z,2.80
2023-04-12T13:15:37.405Z,1.90
2023-04-12T13:18:03.919Z,3.03
2023-04-12T13:20:30.391Z,2.30
2023-04-12T13:22:57.033Z,1.60
2023-04-12T13:25:23.436Z,2.10
2023-04-12T13:27:50.860Z,1.67
2023-04-12T13:30:18.150Z,2.10
2023-04-12T13:32:44.856Z,2.23
2023-04-12T13:35:11.806Z,1.70
2023-04-12T13:37:38.258Z,2.00
2023-04-12T13:40:07.149Z,1.80
2023-04-12T13:42:34.007Z,2.80
2023-04-12T13:45:01.370Z,4.17
2023-04-12T13:47:28.063Z,2.13
2023-04-12T13:49:54.577Z,1.93
2023-04-12T13:52:21.120Z,2.60
2023-04-12T13:54:47.510Z,2.20
2023-04-12T13:57:14.321Z,2.00
2023-04-12T13:59:41.090Z,2.10
2023-04-12T14:02:07.793Z,2.20
2023-04-12T14:04:34.308Z,2.00
2023-04-12T14:07:00.905Z,2.37
2023-04-12T14:09:28.406Z,1.77
2023-04-12T14:11:56.455Z,1.90
2023-04-12T14:14:23.653Z,2.53
2023-04-12T14:16:51.522Z,2.10
2023-04-12T14:19:18.553Z,1.87
2023-04-12T14:21:45.423Z,1.87
2023-04-12T14:24:12.474Z,1.90
2023-04-12T14:26:39.868Z,2.07
2023-04-12T14:29:06.629Z,2.37
2023-04-12T14:31:34.037Z,2.27
2023-04-12T14:34:01.036Z,2.90
2023-04-12T14:36:27.919Z,2.50
2023-04-12T14:38:54.662Z,2.30
2023-04-12T14:41:21.232Z,2.30
2023-04-12T14:43:47.713Z,2.30
2023-04-12T14:46:14.422Z,2.90
2023-04-12T14:48:41.384Z,2.77
2023-04-12T14:51:07.918Z,2.40
2023-04-12T14:53:34.875Z,2.27
2023-04-12T14:56:02.491Z,2.50
2023-04-12T14:58:29.904Z,2.17
2023-04-12T15:00:56.960Z,2.73
2023-04-12T15:03:23.682Z,2.40
2023-04-12T15:05:50.281Z,2.30
2023-04-12T15:08:16.986Z,2.53
2023-04-12T15:10:44.527Z,2.40
2023-04-12T15:13:11.167Z,2.63
2023-04-12T15:15:37.793Z,2.80
2023-04-12T15:18:05.094Z,3.23
2023-04-12T15:20:31.513Z,3.10
2023-04-12T15:22:57.970Z,2.37
2023-04-12T15:25:24.780Z,2.70
2023-04-12T15:27:51.522Z,2.07
2023-04-12T15:30:18.319Z,2.30
2023-04-12T15:32:46.876Z,1.87
2023-04-12T15:37:44.071Z,2.00
2023-04-12T15:40:13.555Z,2.37
2023-04-12T15:42:41.126Z,2.37
2023-04-12T15:45:08.053Z,2.03
2023-04-12T15:47:34.709Z,2.00
2023-04-12T15:50:01.382Z,1.90
2023-04-12T15:52:29.795Z,2.47
2023-04-12T15:54:56.314Z,2.00
2023-04-12T15:57:22.728Z,2.40
2023-04-12T15:59:50.894Z,1.90
2023-04-12T16:02:17.962Z,1.87
2023-04-12T16:04:45.655Z,1.60
2023-04-12T16:07:12.158Z,1.90
2023-04-12T16:09:38.920Z,2.20
2023-04-12T16:12:05.480Z,2.00
2023-04-12T16:14:33.412Z,3.30
2023-04-12T16:16:59.877Z,3.70
2023-04-12T16:19:26.648Z,3.40
2023-04-12T16:21:53.095Z,2.63
2023-04-12T16:24:19.521Z,2.20
2023-04-12T16:26:46.116Z,2.73
2023-04-12T16:29:13.519Z,2.00
2023-04-12T16:31:39.952Z,2.00
2023-04-12T16:34:08.218Z,2.33
2023-04-12T16:36:34.762Z,2.37
2023-04-12T16:39:03.417Z,1.87
2023-04-12T16:41:29.867Z,2.20
2023-04-12T16:43:59.244Z,1.57
2023-04-12T16:46:25.867Z,2.10
2023-04-12T16:48:52.502Z,2.07
2023-04-12T16:51:19.072Z,1.93
2023-04-12T16:53:45.506Z,1.87
2023-04-12T16:56:11.968Z,1.97
2023-04-12T16:58:38.439Z,2.30
2023-04-12T17:01:05.054Z,3.00
2023-04-12T17:03:31.750Z,2.03
2023-04-12T17:05:58.377Z,2.07
2023-04-12T17:08:24.848Z,2.20
2023-04-12T17:10:51.589Z,2.20
2023-04-12T17:13:20.238Z,2.27
2023-04-12T17:15:50.253Z,2.40
2023-04-12T17:18:17.178Z,2.67
2023-04-12T17:20:44.116Z,2.60
2023-04-12T17:23:11.952Z,2.03
2023-04-12T17:25:38.751Z,2.27
2023-04-12T17:28:07.774Z,2.10
2023-04-12T17:30:34.563Z,1.67
2023-04-12T17:33:01.701Z,2.00
2023-04-12T17:35:28.771Z,2.40
2023-04-12T17:37:55.540Z,2.83
2023-04-12T17:40:22.245Z,2.33
2023-04-12T17:42:48.778Z,2.73
2023-04-12T17:45:18.234Z,3.33
2023-04-12T17:47:44.837Z,3.20
2023-04-12T17:50:11.642Z,2.40
2023-04-12T17:52:38.714Z,2.70
2023-04-12T17:55:06.576Z,2.77
2023-04-12T17:57:33.381Z,2.77
2023-04-12T18:00:01.002Z,2.87
2023-04-12T18:02:28.465Z,3.07
2023-04-12T18:04:55.349Z,3.00
2023-04-12T18:07:23.111Z,2.80
2023-04-12T18:09:51.613Z,2.60
2023-04-12T18:12:18.841Z,2.43
2023-04-12T18:14:45.558Z,2.77
2023-04-12T18:17:12.404Z,2.70
2023-04-12T18:19:39.007Z,2.10
2023-04-12T18:22:05.837Z,2.57
2023-04-12T18:24:32.519Z,2.10
2023-04-12T18:26:59.430Z,5.70
2023-04-12T18:29:26.230Z,2.40
2023-04-12T18:31:52.928Z,1.80
2023-04-12T18:34:19.615Z,1.50
2023-04-12T18:36:46.220Z,1.50
2023-04-12T18:39:12.845Z,2.00
2023-04-12T18:41:41.006Z,1.77
2023-04-12T18:44:11.881Z,1.77
2023-04-12T18:46:39.334Z,2.00
2023-04-12T18:49:06.118Z,1.60
2023-04-12T18:51:32.990Z,1.87
2023-04-12T18:54:00.080Z,1.40
2023-04-12T18:56:27.819Z,2.23
2023-04-12T18:58:56.230Z,1.70
2023-04-12T19:01:24.017Z,1.70
2023-04-12T19:03:50.974Z,1.43
2023-04-12T19:06:18.100Z,2.00
2023-04-12T19:08:44.772Z,1.60
2023-04-12T19:11:11.637Z,1.70
2023-04-12T19:13:38.441Z,1.73
2023-04-12T19:16:07.746Z,1.73
2023-04-12T19:18:35.022Z,1.57
2023-04-12T19:21:02.803Z,2.07
2023-04-12T19:23:30.497Z,1.93
2023-04-12T19:26:00.051Z,1.30
2023-04-12T19:28:27.994Z,1.57
2023-04-12T19:30:57.482Z,1.80
2023-04-12T19:33:24.703Z,1.47
2023-04-12T19:35:52.486Z,1.40
2023-04-12T19:38:21.046Z,1.40
2023-04-12T19:40:47.699Z,1.50
2023-04-12T19:43:14.945Z,1.63
2023-04-12T19:45:42.314Z,3.00
2023-04-12T19:48:09.079Z,1.93
2023-04-12T19:50:36.649Z,1.63
2023-04-12T19:53:03.303Z,1.60
2023-04-12T19:55:30.425Z,1.60
2023-04-12T19:57:58.093Z,1.97
2023-04-12T20:00:25.324Z,2.27
2023-04-12T20:02:52.926Z,1.50
2023-04-12T20:05:19.969Z,1.40
2023-04-12T20:07:46.495Z,1.60
2023-04-12T20:10:13.462Z,2.63
2023-04-12T20:12:39.973Z,2.80
2023-04-12T20:15:11.705Z,2.80
2023-04-12T20:17:42.076Z,1.90
2023-04-12T20:20:14.051Z,2.10
2023-04-12T20:22:41.744Z,2.00
2023-04-12T20:25:11.489Z,2.00
2023-04-12T20:27:38.995Z,3.00
2023-04-12T20:30:07.011Z,3.17
2023-04-12T20:32:36.306Z,2.03
2023-04-12T20:35:04.265Z,2.53
2023-04-12T20:37:30.832Z,2.50
2023-04-12T20:39:58.637Z,2.37
2023-04-12T20:42:25.559Z,2.50
2023-04-12T20:44:52.261Z,3.03
2023-04-12T20:47:19.721Z,3.07
2023-04-12T20:49:46.260Z,2.40
2023-04-12T20:52:16.768Z,2.80
2023-04-12T20:54:45.610Z,2.67
2023-04-12T20:57:14.932Z,2.80
2023-04-12T20:59:41.700Z,4.80
2023-04-12T21:02:09.285Z,4.13
2023-04-12T21:04:36.443Z,3.50
2023-04-12T21:07:03.303Z,3.47
2023-04-12T21:09:30.092Z,3.40
2023-04-12T21:11:57.839Z,3.00
2023-04-12T21:14:24.352Z,2.87
2023-04-12T21:16:50.927Z,3.40
2023-04-12T21:19:18.416Z,2.90
2023-04-12T21:21:46.068Z,3.40
2023-04-12T21:24:13.170Z,3.07
2023-04-12T21:26:40.247Z,3.20
2023-04-12T21:29:06.787Z,3.07
2023-04-12T21:31:33.996Z,2.70
2023-04-12T21:34:00.579Z,2.90
2023-04-12T21:36:28.794Z,3.17
2023-04-12T21:38:56.572Z,2.43
2023-04-12T21:41:25.039Z,2.47
2023-04-12T21:43:52.212Z,2.80
2023-04-12T21:46:19.469Z,2.43
2023-04-12T21:48:46.222Z,2.07
2023-04-12T21:51:13.409Z,2.70
2023-04-12T21:53:40.084Z,2.03
2023-04-12T21:56:06.931Z,1.77
2023-04-12T21:58:34.021Z,2.37
2023-04-12T22:01:01.609Z,2.00
2023-04-12T22:03:28.458Z,2.60
2023-04-12T22:06:04.096Z,2.73
2023-04-12T22:08:33.025Z,3.23
2023-04-12T22:11:00.322Z,3.47
2023-04-12T22:13:27.526Z,2.83
2023-04-12T22:15:54.221Z,2.93
2023-04-12T22:18:20.719Z,2.80
2023-04-12T22:20:48.014Z,2.53
2023-04-12T22:23:17.924Z,2.73
2023-04-12T22:25:45.410Z,2.77
2023-04-12T22:28:12.242Z,2.80
2023-04-12T22:30:38.956Z,2.80
2023-04-12T22:33:05.968Z,2.80
2023-04-12T22:35:35.115Z,3.20
2023-04-12T22:38:01.753Z,2.97
2023-04-12T22:40:28.341Z,4.17
2023-04-12T22:42:56.263Z,3.23
2023-04-12T22:45:23.168Z,3.87
2023-04-12T22:47:49.714Z,4.13
2023-04-12T22:50:16.524Z,4.03
2023-04-12T22:52:43.223Z,4.23
2023-04-12T22:55:11.746Z,4.50
2023-04-12T22:57:38.882Z,4.33
2023-04-12T23:00:06.332Z,3.60
2023-04-12T23:02:34.116Z,3.83
2023-04-12T23:05:02.704Z,3.77
2023-04-12T23:07:30.294Z,3.97
2023-04-12T23:09:57.624Z,3.70
2023-04-12T23:12:24.889Z,3.70
2023-04-12T23:14:55.449Z,3.07
2023-04-12T23:17:22.488Z,3.17
2023-04-12T23:19:50.321Z,4.10
2023-04-12T23:22:41.034Z,2.67
2023-04-12T23:25:22.452Z,3.40
2023-04-12T23:27:49.501Z,3.17
2023-04-12T23:30:17.318Z,3.20
2023-04-12T23:32:44.063Z,3.40
2023-04-12T23:35:10.659Z,3.17
2023-04-12T23:37:37.546Z,3.37
2023-04-12T23:40:05.533Z,3.13
2023-04-12T23:42:32.754Z,3.60
2023-04-12T23:44:59.574Z,3.60
2023-04-12T23:47:27.026Z,4.20
2023-04-12T23:49:53.834Z,3.23
2023-04-12T23:52:20.438Z,2.77
2023-04-12T23:54:47.000Z,3.03
2023-04-12T23:57:14.491Z,3.70
2023-04-12T23:59:41.165Z,3.10
